KRDM/RDM METAR and TAF weather

Enter ICAO airport designator
Station Type Date Time Source
KRDM METAR 2021/01/22 06:56 UTC NOAA

KRDM 220656Z AUTO 32009KT 1/4SM FG VV002 00/M01 A2994 RMK AO2 SLP153 I1000 T00001011


Station Type Date Time Source
KRDM Decoded METAR 2021/01/22 06:56 UTC NOAA

REDMOND ROBERTS FIELD, OR, United States (KRDM) 44-15N 121-08W
Jan 22, 2021 - 01:56 AM EST / 2021.01.22 0656 UTC
Wind: from the NW (320 degrees) at 10 MPH (9 KT):0
Visibility: 1/4 mile(s):0
Sky conditions: obscured
Weather: fog
Temperature: 32.0 F (0.0 C)
Windchill: 23 F (-5 C):1
Dew Point: 30.0 F (-1.1 C)
Relative Humidity: 92%
Pressure (altimeter): 29.94 in. Hg (1013 hPa)
ob: KRDM 220656Z AUTO 32009KT 1/4SM FG VV002 00/M01 A2994 RMK AO2 SLP153 I1000 T00001011
cycle: 7

Station Type Date Time Source
KRDM TAF 2021/01/22 06:28 UTC NOAA

TAF
AMD KRDM 220626Z 2206/2306 32007G13KT 1/4SM FG VV002
TEMPO 2206/2209 3SM BR SCT002 BKN060
FM220900 VRB03KT 1 1/2SM BR VCSH OVC009
FM221200 33003KT 4SM -SN BR OVC007
FM221700 34003KT 1 1/2SM -SN BR OVC015
FM230100 33006KT P6SM VCSH SCT015 OVC025

Example: see airport list